createdAt,value
2018-05-02T00:00:26.241Z,11.80
2018-05-02T00:02:54.489Z,11.70
2018-05-02T00:05:22.756Z,11.70
2018-05-02T00:07:50.782Z,11.70
2018-05-02T00:10:19.372Z,11.70
2018-05-02T00:12:47.645Z,11.70
2018-05-02T00:15:15.896Z,11.70
2018-05-02T00:17:44.208Z,11.60
2018-05-02T00:20:12.495Z,11.60
2018-05-02T00:22:40.786Z,11.60
2018-05-02T00:25:09.074Z,11.70
2018-05-02T00:27:37.339Z,11.70
2018-05-02T00:30:05.600Z,11.70
2018-05-02T00:32:33.883Z,11.70
2018-05-02T00:35:02.116Z,11.70
2018-05-02T00:37:30.382Z,11.70
2018-05-02T00:39:58.629Z,11.70
2018-05-02T00:42:26.890Z,11.70
2018-05-02T00:44:55.175Z,11.60
2018-05-02T00:47:23.422Z,11.60
2018-05-02T00:49:51.695Z,11.50
2018-05-02T00:52:19.958Z,11.50
2018-05-02T00:54:48.271Z,11.50
2018-05-02T00:57:16.528Z,11.40
2018-05-02T00:59:44.805Z,11.40
2018-05-02T01:02:13.111Z,11.40
2018-05-02T01:07:10.167Z,11.40
2018-05-02T01:09:38.688Z,11.40
2018-05-02T01:12:06.971Z,11.40
2018-05-02T01:14:35.200Z,11.40
2018-05-02T01:17:03.438Z,11.40
2018-05-02T01:19:31.764Z,11.40
2018-05-02T01:22:00.039Z,11.40
2018-05-02T01:24:28.298Z,11.40
2018-05-02T01:26:56.555Z,11.30
2018-05-02T01:29:24.825Z,11.30
2018-05-02T01:31:53.106Z,11.30
2018-05-02T01:34:21.347Z,11.30
2018-05-02T01:36:49.593Z,11.30
2018-05-02T01:39:17.903Z,11.20
2018-05-02T01:41:46.159Z,11.20
2018-05-02T01:44:14.427Z,11.20
2018-05-02T01:46:42.725Z,11.30
2018-05-02T01:49:22.810Z,11.20
2018-05-02T01:51:51.121Z,11.20
2018-05-02T02:06:43.412Z,11.30
2018-05-02T02:09:11.675Z,11.30
2018-05-02T02:11:40.496Z,11.30
2018-05-02T02:38:57.008Z,10.90
2018-05-02T02:41:25.270Z,10.90
2018-05-02T02:43:53.527Z,10.90
2018-05-02T02:46:21.778Z,10.90
2018-05-02T02:48:50.044Z,10.90
2018-05-02T02:51:18.300Z,10.90
2018-05-02T02:53:46.545Z,10.90
2018-05-02T02:56:14.829Z,10.90
2018-05-02T02:58:43.126Z,11.00
2018-05-02T03:01:10.703Z,11.00
2018-05-02T03:03:38.993Z,11.00
2018-05-02T03:06:07.272Z,11.00
2018-05-02T03:08:35.542Z,11.00
2018-05-02T03:11:03.838Z,10.90
2018-05-02T03:13:32.380Z,10.90
2018-05-02T03:16:00.642Z,10.90
2018-05-02T03:18:28.946Z,10.90
2018-05-02T03:20:57.245Z,10.90
2018-05-02T03:23:25.485Z,10.90
2018-05-02T03:25:53.737Z,10.90
2018-05-02T03:28:22.008Z,10.90
2018-05-02T03:30:50.277Z,10.90
2018-05-02T03:33:18.527Z,10.80
2018-05-02T03:35:46.765Z,10.90
2018-05-02T03:38:15.078Z,11.20
2018-05-02T03:40:43.325Z,11.60
2018-05-02T03:43:11.607Z,11.90
2018-05-02T03:45:39.885Z,12.20
2018-05-02T03:48:08.126Z,12.30
2018-05-02T03:50:36.404Z,12.40
2018-05-02T03:53:04.637Z,12.50
2018-05-02T03:55:32.903Z,12.70
2018-05-02T03:58:01.274Z,12.80
2018-05-02T04:00:40.800Z,12.90
2018-05-02T04:03:20.457Z,12.90
2018-05-02T04:11:11.260Z,12.80
2018-05-02T04:13:40.205Z,12.80
2018-05-02T04:16:08.472Z,12.80
2018-05-02T04:18:36.726Z,12.70
2018-05-02T04:21:04.989Z,12.70
2018-05-02T04:23:33.260Z,12.80
2018-05-02T04:28:30.356Z,12.80
2018-05-02T04:30:57.898Z,12.80
2018-05-02T04:33:26.210Z,13.00
2018-05-02T04:40:52.147Z,13.00
2018-05-02T04:43:20.400Z,13.10
2018-05-02T04:45:48.704Z,13.00
2018-05-02T04:48:16.982Z,12.80
2018-05-02T04:50:45.242Z,12.70
2018-05-02T04:53:13.550Z,12.50
2018-05-02T04:55:41.853Z,12.40
2018-05-02T04:58:10.114Z,12.20
2018-05-02T05:00:38.422Z,12.10
2018-05-02T05:03:06.660Z,12.00
2018-05-02T05:32:52.448Z,12.50
2018-05-02T05:35:20.788Z,12.40
2018-05-02T05:37:49.013Z,12.40
2018-05-02T05:40:17.315Z,12.40
2018-05-02T05:45:14.449Z,12.50
2018-05-02T05:47:42.739Z,12.50
2018-05-02T05:50:11.050Z,12.50
2018-05-02T05:52:39.301Z,12.60
2018-05-02T06:07:31.716Z,12.90
2018-05-02T06:09:59.964Z,12.90
2018-05-02T06:19:55.049Z,13.20
2018-05-02T06:22:23.338Z,13.30
2018-05-02T06:24:51.773Z,13.50
2018-05-02T06:27:20.403Z,13.70
2018-05-02T06:29:48.659Z,14.00
2018-05-02T06:32:16.934Z,14.30
2018-05-02T06:34:45.215Z,14.50
2018-05-02T06:37:13.493Z,14.50
2018-05-02T06:39:41.823Z,14.70
2018-05-02T06:42:10.159Z,14.80
2018-05-02T06:44:38.438Z,14.90
2018-05-02T06:47:06.725Z,14.80
2018-05-02T06:49:35.036Z,14.70
2018-05-02T06:52:03.356Z,14.70
2018-05-02T06:54:31.617Z,14.60
2018-05-02T06:56:59.889Z,14.50
2018-05-02T06:59:28.156Z,14.60
2018-05-02T07:01:56.427Z,14.80
2018-05-02T07:04:24.706Z,14.90
2018-05-02T07:06:53.005Z,15.00
2018-05-02T07:09:21.259Z,14.90
2018-05-02T07:11:49.561Z,14.80
2018-05-02T07:14:17.849Z,15.00
2018-05-02T07:16:46.099Z,15.30
2018-05-02T07:19:15.195Z,15.70
2018-05-02T07:21:43.465Z,16.10
2018-05-02T07:24:11.761Z,16.30
2018-05-02T07:26:40.027Z,16.40
2018-05-02T07:29:08.285Z,16.40
2018-05-02T07:31:36.555Z,16.50
2018-05-02T07:43:20.420Z,17.20
2018-05-02T07:45:48.715Z,17.40
2018-05-02T07:48:16.996Z,17.50
2018-05-02T07:50:45.287Z,17.50
2018-05-02T07:53:13.608Z,17.40
2018-05-02T07:55:41.896Z,17.20
2018-05-02T07:58:10.201Z,17.20
2018-05-02T08:00:38.513Z,17.30
2018-05-02T08:03:06.841Z,17.30
2018-05-02T08:05:35.119Z,17.30
2018-05-02T08:08:03.430Z,17.20
2018-05-02T08:10:31.788Z,17.10
2018-05-02T08:13:00.098Z,17.00
2018-05-02T08:15:28.371Z,17.00
2018-05-02T08:17:56.649Z,17.00
2018-05-02T08:20:25.330Z,17.00
2018-05-02T08:25:22.452Z,17.10
2018-05-02T08:27:50.750Z,17.20
2018-05-02T08:30:18.995Z,17.30
2018-05-02T08:32:47.284Z,17.40
2018-05-02T08:35:15.553Z,17.50
2018-05-02T08:37:43.844Z,17.70
2018-05-02T08:40:12.144Z,17.90
2018-05-02T08:42:40.437Z,18.10
2018-05-02T08:45:08.786Z,18.40
2018-05-02T08:47:36.333Z,18.40
2018-05-02T08:50:04.627Z,18.50
2018-05-02T08:52:32.883Z,18.60
2018-05-02T08:55:01.200Z,18.70
2018-05-02T08:57:29.598Z,18.90
2018-05-02T08:59:57.809Z,18.90
2018-05-02T09:02:26.133Z,19.00
2018-05-02T09:04:54.407Z,18.90
2018-05-02T09:07:22.714Z,18.90
2018-05-02T09:09:50.997Z,19.00
2018-05-02T09:12:19.279Z,19.00
2018-05-02T09:14:47.561Z,19.00
2018-05-02T09:17:15.837Z,19.00
2018-05-02T09:19:44.131Z,19.20
2018-05-02T09:24:42.317Z,19.30
2018-05-02T09:27:10.600Z,19.30
2018-05-02T09:29:38.879Z,19.30
2018-05-02T09:32:07.208Z,19.30
2018-05-02T09:34:35.499Z,19.30
2018-05-02T09:37:03.770Z,19.30
2018-05-02T09:39:32.071Z,19.20
2018-05-02T09:42:00.332Z,19.30
2018-05-02T09:44:28.642Z,19.40
2018-05-02T09:46:56.916Z,19.50
2018-05-02T09:49:25.195Z,19.50
2018-05-02T09:51:54.180Z,19.40
2018-05-02T10:04:17.773Z,19.50
2018-05-02T10:06:46.040Z,19.40
2018-05-02T10:09:14.340Z,19.40
2018-05-02T10:11:42.690Z,19.50
2018-05-02T10:21:38.110Z,20.40
2018-05-02T10:26:35.389Z,21.10
2018-05-02T10:29:03.685Z,21.40
2018-05-02T10:31:32.074Z,21.70
2018-05-02T10:34:00.364Z,21.90
2018-05-02T10:38:58.214Z,22.50
2018-05-02T10:41:26.489Z,22.70
2018-05-02T10:43:54.809Z,22.80
2018-05-02T10:46:23.094Z,23.00
2018-05-02T10:48:51.453Z,23.20
2018-05-02T10:51:19.733Z,23.10
2018-05-02T10:53:47.989Z,23.10
2018-05-02T10:56:16.247Z,23.40
2018-05-02T10:58:44.521Z,23.60
2018-05-02T11:01:12.770Z,23.90
2018-05-02T11:03:41.181Z,24.20
2018-05-02T11:06:09.444Z,24.40
2018-05-02T11:08:37.685Z,24.80
2018-05-02T11:11:05.955Z,25.20
2018-05-02T11:13:34.267Z,25.40
2018-05-02T11:16:02.587Z,25.50
2018-05-02T11:18:30.837Z,25.00
2018-05-02T11:20:59.118Z,24.60
2018-05-02T11:23:27.401Z,24.30
2018-05-02T11:28:24.519Z,24.40
2018-05-02T11:30:52.797Z,24.40
2018-05-02T11:33:21.519Z,24.50
2018-05-02T11:35:49.754Z,24.80
2018-05-02T11:38:18.043Z,25.20
2018-05-02T11:40:46.363Z,25.80
2018-05-02T11:43:14.657Z,26.30
2018-05-02T11:45:42.970Z,26.90
2018-05-02T11:48:11.255Z,27.10
2018-05-02T11:50:39.535Z,26.90
2018-05-02T11:53:07.809Z,26.80
2018-05-02T11:55:36.133Z,26.90
2018-05-02T11:58:04.482Z,26.90
2018-05-02T12:00:32.904Z,26.90
2018-05-02T12:03:01.218Z,27.00
2018-05-02T12:07:58.382Z,27.30
2018-05-02T12:17:54.238Z,27.00
2018-05-02T12:20:23.272Z,27.00
2018-05-02T12:30:18.102Z,26.30
2018-05-02T12:32:46.307Z,25.80
2018-05-02T12:35:14.756Z,25.40
2018-05-02T12:37:43.020Z,25.40
2018-05-02T12:40:11.329Z,25.70
2018-05-02T12:42:39.598Z,26.00
2018-05-02T12:55:03.914Z,26.90
2018-05-02T12:57:32.209Z,27.10
2018-05-02T13:02:29.342Z,27.90
2018-05-02T13:04:57.870Z,28.00
2018-05-02T13:17:22.168Z,28.20
2018-05-02T13:19:50.438Z,28.50
2018-05-02T13:22:18.749Z,28.80
2018-05-02T13:24:47.045Z,29.10
2018-05-02T13:27:15.329Z,29.20
2018-05-02T13:29:43.577Z,29.00
2018-05-02T13:32:11.837Z,28.60
2018-05-02T13:34:40.112Z,28.20
2018-05-02T13:37:08.747Z,27.90
2018-05-02T13:39:36.990Z,27.70
2018-05-02T13:42:05.256Z,27.80
2018-05-02T13:44:33.560Z,27.90
2018-05-02T13:47:01.847Z,27.80
2018-05-02T13:49:30.116Z,27.50
2018-05-02T13:51:58.564Z,27.40
2018-05-02T13:54:26.849Z,27.30
2018-05-02T13:56:55.144Z,27.40
2018-05-02T13:59:23.423Z,27.50
2018-05-02T14:04:20.670Z,28.30
2018-05-02T14:07:29.961Z,28.50
2018-05-02T14:09:56.202Z,29.00
2018-05-02T14:12:22.427Z,29.40
2018-05-02T14:14:49.422Z,29.70
2018-05-02T14:17:15.642Z,29.70
2018-05-02T14:19:41.872Z,29.60
2018-05-02T14:22:08.114Z,29.40
2018-05-02T14:24:34.340Z,28.90
2018-05-02T14:27:00.552Z,28.60
2018-05-02T14:29:26.827Z,28.40
2018-05-02T14:31:53.078Z,28.30
2018-05-02T14:34:19.284Z,28.20
2018-05-02T14:36:45.523Z,27.90
2018-05-02T14:39:11.977Z,27.60
2018-05-02T14:41:39.608Z,27.40
2018-05-02T14:44:05.910Z,27.40
2018-05-02T14:46:32.130Z,27.30
2018-05-02T14:48:58.344Z,27.00
2018-05-02T14:51:24.604Z,26.80
2018-05-02T14:53:50.836Z,26.60
2018-05-02T14:56:17.050Z,26.60
2018-05-02T14:58:43.349Z,26.70
2018-05-02T15:01:09.576Z,26.60
2018-05-02T15:03:35.793Z,26.30
2018-05-02T15:06:02.046Z,26.10
2018-05-02T15:08:28.269Z,25.80
2018-05-02T15:10:54.547Z,25.50
2018-05-02T15:13:21.525Z,25.10
2018-05-02T15:15:47.751Z,25.00
2018-05-02T15:18:13.995Z,24.90
2018-05-02T15:20:40.246Z,24.80
2018-05-02T15:23:06.485Z,24.70
2018-05-02T15:25:32.700Z,24.50
2018-05-02T15:27:59.691Z,24.20
2018-05-02T15:30:25.945Z,24.20
2018-05-02T15:32:52.163Z,24.10
2018-05-02T15:35:18.435Z,23.80
2018-05-02T15:37:44.665Z,23.70
2018-05-02T15:40:11.258Z,23.60
2018-05-02T15:42:37.544Z,23.60
2018-05-02T15:45:03.795Z,23.50
2018-05-02T15:47:30.016Z,23.40
2018-05-02T15:49:56.287Z,23.30
2018-05-02T15:52:22.527Z,23.20
2018-05-02T15:54:48.763Z,23.10
2018-05-02T15:57:15.013Z,23.00
2018-05-02T15:59:41.224Z,22.90
2018-05-02T16:02:07.440Z,22.80
2018-05-02T16:04:33.685Z,22.80
2018-05-02T16:07:00.633Z,22.70
2018-05-02T16:09:27.609Z,22.60
2018-05-02T16:11:53.873Z,22.50
2018-05-02T16:14:20.125Z,22.50
2018-05-02T16:16:46.348Z,22.50
2018-05-02T16:19:12.684Z,22.40
2018-05-02T16:21:38.978Z,22.30
2018-05-02T16:24:05.297Z,22.20
2018-05-02T16:26:31.556Z,22.10
2018-05-02T16:28:58.141Z,21.90
2018-05-02T16:31:24.361Z,21.80
2018-05-02T16:33:50.631Z,21.70
2018-05-02T16:36:17.583Z,21.50
2018-05-02T16:38:43.843Z,21.50
2018-05-02T16:41:10.251Z,21.40
2018-05-02T16:43:36.561Z,21.40
2018-05-02T16:46:02.842Z,21.30
2018-05-02T16:48:29.835Z,21.10
2018-05-02T16:50:56.052Z,21.00
2018-05-02T16:53:22.269Z,20.90
2018-05-02T16:55:48.499Z,20.80
2018-05-02T16:58:14.843Z,20.60
2018-05-02T17:00:41.073Z,20.50
2018-05-02T17:03:07.323Z,20.50
2018-05-02T17:05:33.550Z,20.40
2018-05-02T17:07:59.769Z,20.30
2018-05-02T17:10:26.031Z,20.30
2018-05-02T17:12:52.276Z,20.20
2018-05-02T17:15:18.521Z,20.20
2018-05-02T17:17:44.764Z,20.20
2018-05-02T17:20:11.018Z,20.10
2018-05-02T17:22:37.978Z,20.00
2018-05-02T17:25:04.222Z,20.00
2018-05-02T17:27:30.438Z,20.00
2018-05-02T17:29:56.696Z,19.90
2018-05-02T17:32:22.953Z,19.80
2018-05-02T17:34:49.937Z,19.70
2018-05-02T17:37:16.183Z,19.70
2018-05-02T17:39:42.465Z,19.50
2018-05-02T17:42:08.885Z,19.40
2018-05-02T17:44:35.154Z,19.30
2018-05-02T17:47:01.496Z,19.30
2018-05-02T17:49:28.490Z,19.20
2018-05-02T17:51:55.516Z,19.10
2018-05-02T17:54:21.779Z,19.10
2018-05-02T17:56:48.754Z,19.00
2018-05-02T17:59:15.095Z,19.00
2018-05-02T18:01:41.345Z,18.90
2018-05-02T18:04:07.577Z,18.90
2018-05-02T18:06:33.825Z,18.80
2018-05-02T18:09:00.339Z,18.70
2018-05-02T18:11:27.327Z,18.60
2018-05-02T18:14:01.715Z,18.60
2018-05-02T18:16:27.983Z,18.50
2018-05-02T18:18:54.256Z,18.50
2018-05-02T18:21:20.564Z,18.40
2018-05-02T18:23:47.629Z,18.20
2018-05-02T18:26:13.922Z,18.20
2018-05-02T18:28:40.268Z,18.20
2018-05-02T18:31:06.539Z,18.10
2018-05-02T18:33:33.567Z,18.00
2018-05-02T18:35:59.860Z,18.00
2018-05-02T18:38:26.147Z,18.00
2018-05-02T18:40:52.435Z,18.00
2018-05-02T18:43:19.809Z,17.90
2018-05-02T18:45:46.132Z,17.90
2018-05-02T18:48:13.173Z,17.90
2018-05-02T18:50:39.509Z,17.80
2018-05-02T18:53:05.834Z,17.80
2018-05-02T18:55:32.123Z,17.80
2018-05-02T18:57:59.379Z,17.70
2018-05-02T19:00:25.689Z,17.60
2018-05-02T19:02:51.980Z,17.50
2018-05-02T19:05:19.064Z,17.40
2018-05-02T19:07:45.421Z,17.40
2018-05-02T19:10:11.729Z,17.40
2018-05-02T19:12:38.071Z,17.30
2018-05-02T19:15:05.128Z,17.20
2018-05-02T19:17:32.202Z,17.00
2018-05-02T19:20:04.553Z,17.00
2018-05-02T19:22:30.834Z,16.80
2018-05-02T19:25:03.065Z,16.70
2018-05-02T19:27:29.406Z,16.70
2018-05-02T19:29:55.731Z,16.60
2018-05-02T19:32:42.022Z,16.50
2018-05-02T19:35:08.316Z,16.40
2018-05-02T19:37:35.400Z,16.20
2018-05-02T19:40:08.531Z,16.20
2018-05-02T19:42:40.872Z,16.10
2018-05-02T19:45:08.519Z,16.00
2018-05-02T19:47:34.832Z,15.90
2018-05-02T19:50:01.149Z,15.70
2018-05-02T19:52:33.626Z,15.70
2018-05-02T19:55:00.721Z,15.60
2018-05-02T19:57:27.073Z,15.60
2018-05-02T19:59:53.364Z,15.50
2018-05-02T20:02:26.547Z,15.40
2018-05-02T20:04:52.848Z,15.40
2018-05-02T20:07:25.179Z,15.40
2018-05-02T20:09:57.664Z,15.40
2018-05-02T20:12:30.090Z,15.40
2018-05-02T20:14:56.378Z,15.40
2018-05-02T20:17:22.809Z,15.40
2018-05-02T20:19:49.127Z,15.40
2018-05-02T20:22:15.414Z,15.50
2018-05-02T20:24:42.511Z,15.60
2018-05-02T20:27:08.807Z,15.60
2018-05-02T20:29:35.103Z,15.60
2018-05-02T20:32:01.447Z,15.70
2018-05-02T20:34:27.707Z,15.70
2018-05-02T20:36:54.013Z,15.70
2018-05-02T20:39:20.296Z,15.60
2018-05-02T20:41:46.555Z,15.60
2018-05-02T20:44:12.820Z,15.60
2018-05-02T20:46:40.462Z,15.60
2018-05-02T20:49:06.675Z,15.60
2018-05-02T20:51:32.918Z,15.50
2018-05-02T20:53:59.177Z,15.50
2018-05-02T20:56:25.426Z,15.50
2018-05-02T20:58:51.653Z,15.40
2018-05-02T21:01:17.933Z,15.40
2018-05-02T21:03:44.183Z,15.40
2018-05-02T21:06:10.445Z,15.50
2018-05-02T21:08:36.685Z,15.50
2018-05-02T21:11:03.636Z,15.20
2018-05-02T21:13:30.599Z,15.00
2018-05-02T21:15:57.589Z,14.90
2018-05-02T21:18:23.818Z,14.90
2018-05-02T21:20:50.030Z,14.90
2018-05-02T21:23:17.008Z,14.80
2018-05-02T21:25:43.268Z,14.80
2018-05-02T21:28:09.527Z,14.70
2018-05-02T21:30:35.788Z,14.70
2018-05-02T21:33:02.005Z,14.70
2018-05-02T21:35:28.236Z,14.60
2018-05-02T21:37:54.486Z,14.50
2018-05-02T21:40:20.693Z,14.40
2018-05-02T21:42:46.906Z,14.30
2018-05-02T21:45:13.898Z,14.20
2018-05-02T21:47:40.292Z,14.20
2018-05-02T21:50:06.540Z,14.10
2018-05-02T21:52:32.774Z,14.10
2018-05-02T21:54:58.985Z,14.10
2018-05-02T21:57:25.229Z,14.00
2018-05-02T21:59:51.473Z,14.00
2018-05-02T22:02:17.712Z,13.90
2018-05-02T22:04:43.926Z,13.90
2018-05-02T22:07:10.199Z,13.90
2018-05-02T22:09:36.408Z,13.90
2018-05-02T22:12:02.665Z,13.80
2018-05-02T22:14:28.898Z,13.80
2018-05-02T22:16:55.144Z,13.80
2018-05-02T22:19:21.344Z,13.80
2018-05-02T22:21:47.576Z,13.80
2018-05-02T22:24:14.570Z,13.80
2018-05-02T22:26:40.819Z,13.70
2018-05-02T22:29:07.083Z,13.70
2018-05-02T22:31:34.080Z,13.70
2018-05-02T22:34:01.035Z,13.70
2018-05-02T22:36:28.144Z,13.60
2018-05-02T22:38:54.392Z,13.60
2018-05-02T22:41:20.599Z,13.60
2018-05-02T22:43:46.825Z,13.50
2018-05-02T22:46:13.789Z,13.50
2018-05-02T22:48:40.121Z,13.50
2018-05-02T22:51:07.108Z,13.50
2018-05-02T22:53:33.314Z,13.40
2018-05-02T22:56:00.268Z,13.40
2018-05-02T22:58:27.336Z,13.40
2018-05-02T23:00:53.604Z,13.40
2018-05-02T23:03:19.828Z,13.40
2018-05-02T23:05:46.071Z,13.40
2018-05-02T23:08:12.318Z,13.40
2018-05-02T23:10:38.544Z,13.40
2018-05-02T23:13:05.055Z,13.40
2018-05-02T23:15:31.302Z,13.30
2018-05-02T23:17:57.536Z,13.30
2018-05-02T23:20:23.781Z,13.20
2018-05-02T23:22:50.026Z,13.20
2018-05-02T23:25:16.342Z,13.20
2018-05-02T23:27:42.574Z,13.20
2018-05-02T23:30:08.786Z,13.20
2018-05-02T23:32:35.012Z,13.10
2018-05-02T23:35:01.994Z,13.20
2018-05-02T23:37:28.206Z,13.20
2018-05-02T23:39:55.157Z,13.30
2018-05-02T23:42:22.147Z,13.30
2018-05-02T23:44:48.358Z,13.30
2018-05-02T23:47:15.313Z,13.30
2018-05-02T23:49:42.436Z,13.30
2018-05-02T23:52:08.657Z,13.20
2018-05-02T23:54:34.889Z,13.30
2018-05-02T23:57:01.097Z,13.20
2018-05-02T23:59:28.105Z,13.20
